Time;durP1;ratioP1;P1;durP2;ratioP2;P2;SDS_P1;SDS_P2;PMS_P1;PMS_P2;Temp;Humidity;BMP_temperature;BMP_pressure;BME280_temperature;BME280_humidity;BME280_pressure;Samples;Min_cycle;Max_cycle;Signal;HPM_P1;HPM_P2
2021/01/25 00:01:01;;;;;;;17.10;10.15;;;;;;;2.79;70.64;98474.64;2149235;82;28821;-74
2021/01/25 00:04:03;;;;;;;17.37;10.28;;;;;;;2.71;70.67;98469.72;2149672;82;31151;-72
2021/01/25 00:07:06;;;;;;;20.17;10.20;;;;;;;2.70;70.69;98472.42;2171317;81;33131;-74
2021/01/25 00:10:11;;;;;;;14.98;9.58;;;;;;;2.64;70.80;98474.05;2111515;84;30198;-72
2021/01/25 00:13:14;;;;;;;19.45;10.30;;;;;;;2.62;71.04;98470.13;2111728;84;27788;-73
2021/01/25 00:16:16;;;;;;;16.48;9.38;;;;;;;2.63;70.96;98471.01;2110914;84;28900;-72
2021/01/25 00:19:18;;;;;;;17.40;9.60;;;;;;;2.62;71.09;98475.91;2140110;81;31674;-73
2021/01/25 00:22:21;;;;;;;16.45;9.90;;;;;;;2.63;71.14;98472.33;2182452;81;33121;-71
2021/01/25 00:25:23;;;;;;;15.60;9.58;;;;;;;2.65;71.24;98475.28;2111304;84;29910;-69
2021/01/25 00:28:25;;;;;;;16.48;9.78;;;;;;;2.68;71.19;98487.48;2149736;82;27690;-68
2021/01/25 00:31:27;;;;;;;20.50;10.32;;;;;;;2.67;71.20;98495.03;2113012;83;28835;-71
2021/01/25 00:34:29;;;;;;;17.67;10.32;;;;;;;2.63;71.14;98493.00;2173234;81;31145;-72
2021/01/25 00:37:31;;;;;;;16.60;10.53;;;;;;;2.61;71.20;98495.33;2138370;82;32301;-70
2021/01/25 00:40:33;;;;;;;18.95;11.12;;;;;;;2.57;71.31;98500.75;2132339;83;29790;-72
2021/01/25 00:43:35;;;;;;;16.67;10.35;;;;;;;2.52;71.29;98504.06;2128903;82;27635;-72
2021/01/25 00:46:37;;;;;;;16.23;10.40;;;;;;;2.49;71.44;98498.91;2122037;83;28904;-71
2021/01/25 00:49:39;;;;;;;16.77;10.53;;;;;;;2.48;71.45;98500.31;2154126;82;31163;-73
2021/01/25 00:52:41;;;;;;;19.42;11.38;;;;;;;2.47;71.52;98503.89;2153949;82;33364;-72
2021/01/25 00:55:46;;;;;;;16.52;9.88;;;;;;;2.44;71.49;98504.89;2147693;82;29724;-69
2021/01/25 00:58:47;;;;;;;18.55;9.55;;;;;;;2.40;71.55;98502.83;2147364;82;27653;-72
2021/01/25 01:01:49;;;;;;;17.85;10.40;;;;;;;2.37;71.58;98502.12;2147244;82;28945;-71
2021/01/25 01:04:51;;;;;;;15.30;9.98;;;;;;;2.39;71.73;98514.36;2147725;82;31261;-69
2021/01/25 01:07:53;;;;;;;17.40;9.98;;;;;;;2.38;71.78;98520.56;2121473;82;33023;-74
2021/01/25 01:10:55;;;;;;;20.52;11.22;;;;;;;2.35;71.78;98523.34;2111045;84;29801;-69
2021/01/25 01:13:57;;;;;;;16.07;10.45;;;;;;;2.35;71.93;98533.04;2112009;82;27733;-73
2021/01/25 01:16:59;;;;;;;15.80;11.08;;;;;;;2.35;72.06;98536.55;2111513;83;28920;-74
2021/01/25 01:20:04;;;;;;;18.00;10.88;;;;;;;2.33;72.07;98521.67;2111362;84;31156;-71
2021/01/25 01:23:05;;;;;;;20.03;11.30;;;;;;;2.32;72.14;98527.44;2115212;82;33121;-74
2021/01/25 01:26:07;;;;;;;16.15;11.43;;;;;;;2.25;72.24;98516.28;2111577;84;29310;-68
2021/01/25 01:29:09;;;;;;;18.15;11.53;;;;;;;2.32;72.31;98514.70;2111756;84;27639;-74
2021/01/25 01:32:12;;;;;;;21.02;12.28;;;;;;;2.28;72.23;98525.41;2116581;82;29746;-75
2021/01/25 01:35:14;;;;;;;18.32;11.48;;;;;;;2.25;72.29;98520.25;2152467;80;31557;-73
2021/01/25 01:38:16;;;;;;;19.10;11.60;;;;;;;2.23;72.37;98520.78;2133909;80;33120;-74
2021/01/25 01:41:18;;;;;;;19.67;11.78;;;;;;;2.23;72.54;98519.45;2134905;81;29093;-74
2021/01/25 01:44:20;;;;;;;22.17;12.68;;;;;;;2.25;72.59;98523.34;2177802;80;27649;-74
2021/01/25 01:47:23;;;;;;;20.60;11.97;;;;;;;2.28;72.71;98528.48;2175768;81;28011;-72
2021/01/25 01:50:25;;;;;;;18.80;12.18;;;;;;;2.33;72.75;98529.16;2175514;81;31664;-73
2021/01/25 01:53:27;;;;;;;20.65;12.25;;;;;;;2.35;72.81;98529.95;2178268;81;33560;-72
2021/01/25 01:56:30;;;;;;;17.73;11.70;;;;;;;2.37;72.78;98527.22;2152099;81;29175;-74
2021/01/25 01:59:36;;;;;;;17.80;12.58;;;;;;;2.37;72.82;98529.86;2131806;83;27665;-73
2021/01/25 02:02:38;;;;;;;19.15;12.80;;;;;;;2.35;72.89;98531.72;2145281;82;28615;-73
2021/01/25 02:05:41;;;;;;;18.20;11.75;;;;;;;2.32;72.87;98532.72;2171786;81;32551;-75
2021/01/25 02:08:43;;;;;;;17.25;12.07;;;;;;;2.32;73.04;98531.88;2150048;82;33133;-71
2021/01/25 02:11:46;;;;;;;17.62;12.15;;;;;;;2.30;73.05;98538.53;2117680;82;29204;-74
2021/01/25 02:14:48;;;;;;;18.25;12.85;;;;;;;2.25;73.10;98544.47;2150120;82;27756;-75
2021/01/25 02:17:51;;;;;;;17.02;11.95;;;;;;;2.23;73.14;98540.59;2176095;81;28840;-74
2021/01/25 02:20:53;;;;;;;16.05;11.10;;;;;;;2.23;73.28;98547.20;2156801;81;32114;-72
2021/01/25 02:24:21;;;;;;;17.65;12.75;;;;;;;2.25;73.36;98541.39;2149938;82;32400;-72
2021/01/25 02:27:36;;;;;;;17.50;12.10;;;;;;;2.33;73.47;98548.09;2182581;81;30157;-72
2021/01/25 02:30:39;;;;;;;16.50;12.05;;;;;;;2.38;73.44;98556.24;2183229;81;27688;-73
2021/01/25 02:33:53;;;;;;;17.15;11.63;;;;;;;2.43;73.49;98553.39;2182920;81;29755;-72
2021/01/25 02:36:58;;;;;;;18.07;12.68;;;;;;;2.49;73.42;98557.54;2199383;80;31261;-72
2021/01/25 02:40:02;;;;;;;19.10;12.37;;;;;;;2.47;73.33;98554.98;2218053;80;33194;-72
2021/01/25 02:43:04;;;;;;;20.95;14.20;;;;;;;2.45;73.27;98562.11;2217744;80;29214;-74
2021/01/25 02:46:08;;;;;;;19.10;13.38;;;;;;;2.45;73.40;98564.75;2212658;80;27713;-73
2021/01/25 02:49:11;;;;;;;17.65;12.00;;;;;;;2.45;73.31;98558.59;2192950;80;28821;-72
2021/01/25 02:52:17;;;;;;;18.48;11.60;;;;;;;2.46;73.38;98564.27;2216992;80;31137;-72
2021/01/25 02:55:19;;;;;;;19.75;12.73;;;;;;;2.43;73.39;98567.92;2193940;79;33381;-72
2021/01/25 02:58:22;;;;;;;18.20;12.55;;;;;;;2.40;73.39;98578.63;2217179;79;29163;-72
2021/01/25 03:01:24;;;;;;;19.90;13.05;;;;;;;2.37;73.34;98584.04;2208920;80;27742;-70
2021/01/25 03:04:26;;;;;;;16.85;11.25;;;;;;;2.33;73.35;98587.28;2202451;78;28935;-71
2021/01/25 03:07:28;;;;;;;11.75;7.47;;;;;;;2.30;73.29;98590.53;2168574;82;31171;-71
2021/01/25 03:10:31;;;;;;;11.75;8.28;;;;;;;2.25;73.21;98591.59;2208406;80;33122;-72
2021/01/25 03:13:33;;;;;;;12.35;8.85;;;;;;;2.26;73.26;98590.66;2169232;80;29174;-73
2021/01/25 03:16:35;;;;;;;13.65;9.20;;;;;;;2.29;73.27;98593.63;2168817;82;28129;-71
2021/01/25 03:19:36;;;;;;;15.30;9.75;;;;;;;2.31;73.18;98593.58;2168633;82;28827;-72
2021/01/25 03:22:38;;;;;;;12.88;9.50;;;;;;;2.32;73.32;98595.30;2178494;80;31123;-74
2021/01/25 03:25:39;;;;;;;12.55;8.43;;;;;;;2.31;73.07;98597.54;2206584;80;34043;-72
2021/01/25 03:28:41;;;;;;;11.83;8.48;;;;;;;2.32;73.06;98603.22;2206615;80;28959;-72
2021/01/25 03:31:43;;;;;;;15.28;9.03;;;;;;;2.33;73.13;98610.20;2194241;80;27606;-72
2021/01/25 03:34:45;;;;;;;13.20;8.08;;;;;;;2.32;73.01;98613.79;2168492;82;28863;-73
2021/01/25 03:37:47;;;;;;;10.45;8.18;;;;;;;2.28;72.86;98613.04;2172688;80;31145;-73
2021/01/25 03:40:49;;;;;;;12.85;8.30;;;;;;;2.21;72.61;98620.38;2191201;81;32288;-72
2021/01/25 03:43:51;;;;;;;12.40;8.55;;;;;;;2.17;72.78;98625.86;2191392;81;29171;-74
2021/01/25 03:46:53;;;;;;;13.10;8.08;;;;;;;2.14;72.74;98633.47;2191500;81;28149;-72
2021/01/25 03:49:55;;;;;;;9.55;6.70;;;;;;;2.10;72.73;98637.15;2189646;81;28817;-71
2021/01/25 03:53:03;;;;;;;10.50;7.10;;;;;;;2.09;72.76;98634.95;2211484;80;31146;-72
2021/01/25 03:56:05;;;;;;;11.10;6.62;;;;;;;2.14;72.91;98638.75;2211645;80;33137;-72
2021/01/25 03:59:07;;;;;;;11.00;7.50;;;;;;;2.17;72.94;98633.78;2212109;80;30147;-71
2021/01/25 04:02:10;;;;;;;12.25;8.15;;;;;;;2.23;72.97;98632.22;2198666;80;27706;-71
2021/01/25 04:05:13;;;;;;;13.53;7.97;;;;;;;2.26;72.91;98624.13;2182920;80;28914;-72
2021/01/25 04:08:15;;;;;;;13.78;9.00;;;;;;;2.30;72.78;98631.02;2169144;81;31131;-72
2021/01/25 04:11:17;;;;;;;19.90;10.45;;;;;;;2.33;72.77;98637.94;2172520;80;34162;-71
2021/01/25 04:14:19;;;;;;;20.43;10.75;;;;;;;2.35;72.76;98632.13;2168500;81;29171;-71
2021/01/25 04:17:23;;;;;;;17.57;10.50;;;;;;;2.38;72.76;98640.80;2168525;81;27770;-72
2021/01/25 04:20:25;;;;;;;23.67;11.35;;;;;;;2.36;72.61;98640.02;2205778;80;28825;-71
2021/01/25 04:23:27;;;;;;;19.80;11.60;;;;;;;2.36;72.63;98643.98;2220073;80;31129;-72
2021/01/25 04:26:29;;;;;;;17.52;10.90;;;;;;;2.35;72.56;98638.73;2217497;80;33123;-71
2021/01/25 04:29:31;;;;;;;19.55;11.20;;;;;;;2.29;72.50;98641.19;2202202;80;30152;-71
2021/01/25 04:32:35;;;;;;;17.32;10.95;;;;;;;2.25;72.47;98636.95;2179071;80;27741;-71
2021/01/25 04:35:41;;;;;;;16.23;10.95;;;;;;;2.23;72.43;98638.83;2178602;80;29848;-71
2021/01/25 04:38:43;;;;;;;17.25;10.23;;;;;;;2.20;72.45;98634.50;2139568;82;31878;-72
2021/01/25 04:41:47;;;;;;;17.42;10.10;;;;;;;2.17;72.45;98631.14;2147649;81;33116;-72
2021/01/25 04:44:49;;;;;;;15.15;10.05;;;;;;;2.13;72.45;98644.48;2177277;81;29169;-72
2021/01/25 04:47:54;;;;;;;17.98;10.60;;;;;;;2.10;72.45;98640.64;2176447;81;27730;-69
2021/01/25 04:50:59;;;;;;;16.60;10.17;;;;;;;2.06;72.47;98649.64;2177482;81;28196;-72
2021/01/25 04:54:01;;;;;;;18.82;11.10;;;;;;;2.04;72.56;98653.24;2168679;80;32463;-72
2021/01/25 04:57:04;;;;;;;17.02;10.50;;;;;;;2.03;72.64;98656.36;2187902;80;33110;-72
2021/01/25 05:00:09;;;;;;;18.15;10.93;;;;;;;2.00;72.67;98657.80;2207242;80;29162;-70
2021/01/25 05:03:11;;;;;;;18.00;9.83;;;;;;;1.92;72.72;98642.72;2206510;80;27623;-72
2021/01/25 05:06:13;;;;;;;15.65;9.80;;;;;;;1.96;72.77;98653.11;2212209;80;28765;-72
2021/01/25 05:09:15;;;;;;;15.95;11.22;;;;;;;1.98;72.84;98650.40;2168693;80;32074;-72
2021/01/25 05:12:18;;;;;;;15.32;11.00;;;;;;;1.99;72.89;98644.67;2177995;80;33126;-73
2021/01/25 05:15:30;;;;;;;15.60;10.43;;;;;;;2.01;72.99;98652.05;2187827;80;30030;-74
2021/01/25 05:18:35;;;;;;;17.95;11.08;;;;;;;2.04;73.08;98653.24;2178159;80;27650;-72
2021/01/25 05:21:45;;;;;;;16.10;10.58;;;;;;;2.06;73.11;98653.59;2178890;80;29189;-71
2021/01/25 05:24:49;;;;;;;20.25;12.30;;;;;;;2.07;73.06;98654.44;2140061;83;31146;-72
2021/01/25 05:27:52;;;;;;;17.05;11.55;;;;;;;2.07;73.03;98659.25;2178646;81;33562;-73
2021/01/25 05:30:54;;;;;;;17.42;12.13;;;;;;;2.05;73.06;98654.52;2179311;79;30123;-70
2021/01/25 05:33:55;;;;;;;17.17;11.40;;;;;;;2.05;73.11;98662.89;2211361;80;27642;-72
2021/01/25 05:37:03;;;;;;;18.80;11.22;;;;;;;2.04;73.07;98656.76;2216346;80;28893;-73
2021/01/25 05:40:07;;;;;;;15.95;9.88;;;;;;;2.03;73.12;98666.05;2217063;80;31213;-72
2021/01/25 05:43:16;;;;;;;17.65;10.65;;;;;;;2.02;73.17;98669.16;2217014;80;34023;-71
2021/01/25 05:46:19;;;;;;;17.65;10.65;;;;;;;2.05;73.17;98673.01;2177727;81;30108;-74
2021/01/25 05:49:26;;;;;;;19.20;11.60;;;;;;;2.06;73.28;98668.56;2178366;81;27693;-72
2021/01/25 05:52:28;;;;;;;19.30;12.30;;;;;;;2.09;73.27;98673.25;2178406;81;29779;-73
2021/01/25 05:55:30;;;;;;;19.60;11.88;;;;;;;2.11;73.44;98676.70;2203878;80;31110;-72
2021/01/25 05:58:32;;;;;;;19.48;12.13;;;;;;;2.17;73.42;98677.38;2181755;80;33154;-72
2021/01/25 06:01:35;;;;;;;17.62;11.38;;;;;;;2.19;73.37;98679.02;2188804;80;28371;-73
2021/01/25 06:04:38;;;;;;;19.05;12.25;;;;;;;2.19;73.25;98676.85;2194552;80;27751;-71
2021/01/25 06:07:41;;;;;;;22.02;13.10;;;;;;;2.19;73.29;98684.30;2177846;81;28824;-71
2021/01/25 06:11:00;;;;;;;23.47;15.13;;;;;;;2.17;73.34;98689.27;2178697;80;32573;-72
2021/01/25 06:14:29;;;;;;;19.15;12.68;;;;;;;2.14;73.41;98687.62;2210794;80;32993;-71
2021/01/25 06:17:35;;;;;;;18.15;11.43;;;;;;;2.13;73.52;98695.14;2175849;81;29156;-71
2021/01/25 06:20:38;;;;;;;19.65;11.80;;;;;;;2.11;73.51;98696.51;2178298;81;27635;-73
2021/01/25 06:23:41;;;;;;;19.02;11.95;;;;;;;2.09;73.62;98696.19;2173377;81;29244;-69
2021/01/25 06:26:47;;;;;;;19.73;13.00;;;;;;;2.11;73.71;98693.02;2178377;80;31130;-69
2021/01/25 06:30:01;;;;;;;20.32;13.75;;;;;;;2.13;73.76;98703.91;2216959;80;34024;-71
2021/01/25 06:33:05;;;;;;;21.77;13.98;;;;;;;2.14;73.82;98699.51;2172975;80;29110;-73
2021/01/25 06:36:08;;;;;;;20.27;14.10;;;;;;;2.17;73.92;98702.47;2217365;80;27617;-72
2021/01/25 06:39:11;;;;;;;22.87;14.25;;;;;;;2.19;73.92;98710.72;2216399;80;28875;-72
2021/01/25 06:42:17;;;;;;;19.55;13.50;;;;;;;2.18;73.88;98715.61;2213776;80;30999;-73
2021/01/25 06:45:25;;;;;;;21.37;15.28;;;;;;;2.17;73.95;98719.17;2148179;81;33101;-73
2021/01/25 06:48:28;;;;;;;24.75;15.45;;;;;;;2.14;73.94;98720.64;2178222;81;29016;-71
2021/01/25 06:51:30;;;;;;;25.92;15.28;;;;;;;2.13;73.98;98724.20;2178620;80;27606;-72
2021/01/25 06:54:32;;;;;;;23.62;14.80;;;;;;;2.11;74.05;98722.08;2178344;81;29701;-69
2021/01/25 06:57:36;;;;;;;24.20;13.93;;;;;;;2.07;74.07;98735.00;2150087;80;31246;-72
2021/01/25 07:00:40;;;;;;;19.75;13.30;;;;;;;2.05;74.13;98739.04;2216889;80;33103;-72
2021/01/25 07:03:58;;;;;;;27.20;15.23;;;;;;;2.07;74.17;98741.61;2214857;80;29160;-72
2021/01/25 07:07:00;;;;;;;26.90;15.15;;;;;;;2.09;74.28;98743.73;2216785;80;27659;-73
2021/01/25 07:10:05;;;;;;;25.40;15.88;;;;;;;2.12;74.37;98744.45;2169470;81;28832;-71
2021/01/25 07:13:29;;;;;;;28.23;16.05;;;;;;;2.16;74.42;98748.30;2134704;81;31160;-72
2021/01/25 07:16:48;;;;;;;35.33;17.57;;;;;;;2.17;74.37;98753.51;2173263;81;33282;-71
2021/01/25 07:19:57;;;;;;;28.27;17.30;;;;;;;2.19;74.45;98750.34;2152954;81;29215;-68
2021/01/25 07:23:03;;;;;;;25.82;16.65;;;;;;;2.21;74.42;98748.52;2101823;83;27724;-71
2021/01/25 07:26:05;;;;;;;25.62;16.37;;;;;;;2.23;74.40;98756.39;2110958;84;28899;-71
2021/01/25 07:29:11;;;;;;;29.40;17.00;;;;;;;2.22;74.50;98755.52;2110885;83;32481;-69
2021/01/25 07:32:13;;;;;;;26.55;15.58;;;;;;;2.24;74.48;98755.00;2128604;82;33153;-71
2021/01/25 07:35:16;;;;;;;27.15;15.60;;;;;;;2.23;74.48;98755.08;2177367;81;29951;-71
2021/01/25 07:38:18;;;;;;;24.52;14.60;;;;;;;2.23;74.49;98759.03;2145679;81;27873;-71
2021/01/25 07:41:21;;;;;;;26.02;16.60;;;;;;;2.25;74.54;98758.04;2191702;80;28819;-71
2021/01/25 07:44:23;;;;;;;23.90;15.58;;;;;;;2.28;74.59;98759.24;2216689;80;32105;-71
2021/01/25 07:47:25;;;;;;;26.45;17.20;;;;;;;2.33;74.63;98759.05;2216962;80;33965;-71
2021/01/25 07:50:28;;;;;;;24.18;15.83;;;;;;;2.36;74.72;98761.57;2217386;80;29169;-69
2021/01/25 07:53:35;;;;;;;27.85;17.02;;;;;;;2.40;74.67;98765.78;2217295;80;27727;-72
2021/01/25 07:56:37;;;;;;;25.57;16.48;;;;;;;2.42;74.72;98763.94;2216997;80;28834;-71
2021/01/25 07:59:39;;;;;;;27.55;18.35;;;;;;;2.46;74.66;98762.05;2208981;80;31990;-73
2021/01/25 08:02:43;;;;;;;24.92;16.40;;;;;;;2.49;74.68;98768.98;2169681;80;33151;-72
2021/01/25 08:05:55;;;;;;;24.52;16.50;;;;;;;2.50;74.61;98767.59;2179927;80;29225;-72
2021/01/25 08:08:57;;;;;;;25.95;16.65;;;;;;;2.53;74.62;98770.11;2184573;80;28216;-72
2021/01/25 08:12:00;;;;;;;33.70;19.00;;;;;;;2.54;74.51;98766.55;2167784;82;28822;-73
2021/01/25 08:15:10;;;;;;;29.02;16.40;;;;;;;2.56;74.49;98766.50;2168583;82;32127;-72
2021/01/25 08:18:11;;;;;;;27.30;15.03;;;;;;;2.54;74.27;98771.83;2177945;80;33099;-72
2021/01/25 08:21:16;;;;;;;23.85;15.05;;;;;;;2.58;74.41;98771.23;2192950;80;30107;-75
2021/01/25 08:24:18;;;;;;;25.08;14.83;;;;;;;2.64;74.43;98765.70;2191069;78;27628;-73
2021/01/25 08:27:21;;;;;;;21.12;14.00;;;;;;;2.69;74.43;98777.41;2258081;78;28814;-71
2021/01/25 08:30:24;;;;;;;19.30;11.68;;;;;;;2.73;74.37;98781.17;2217113;80;31150;-73
2021/01/25 08:33:31;;;;;;;19.60;11.55;;;;;;;2.76;74.16;98781.97;2215650;80;33989;-72
2021/01/25 08:36:35;;;;;;;19.95;12.53;;;;;;;2.76;73.73;98785.93;2217006;80;29166;-72
2021/01/25 08:39:44;;;;;;;19.07;12.95;;;;;;;2.72;73.96;98783.44;2216923;79;27661;-74
2021/01/25 08:42:47;;;;;;;21.15;12.82;;;;;;;2.77;74.01;98788.53;2216319;80;28791;-74
2021/01/25 08:45:52;;;;;;;18.07;11.00;;;;;;;2.83;73.98;98785.61;2203481;80;31228;-72
2021/01/25 08:48:54;;;;;;;17.45;10.65;;;;;;;2.86;73.78;98782.84;2216919;80;34050;-73
2021/01/25 08:52:00;;;;;;;16.30;10.32;;;;;;;2.88;73.77;98778.83;2216585;80;30152;-72
2021/01/25 08:55:22;;;;;;;30.75;16.48;;;;;;;2.94;73.76;98780.34;2169447;81;27627;-74
2021/01/25 08:58:35;;;;;;;17.83;11.80;;;;;;;3.01;73.46;98785.75;2297182;77;27707;-74
2021/01/25 09:01:42;;;;;;;;;;;;;;;2.98;73.36;98794.69;2264026;78;27740;-74
2021/01/25 09:04:45;;;;;;;15.78;11.10;;;;;;;3.00;73.38;98795.92;2262139;78;29703;-73
2021/01/25 09:07:52;;;;;;;14.40;9.93;;;;;;;3.07;73.66;98799.16;2249063;78;31592;-73
2021/01/25 09:10:57;;;;;;;31.55;18.67;;;;;;;3.16;73.40;98799.63;2223919;78;32906;-75
2021/01/25 09:13:59;;;;;;;33.08;19.30;;;;;;;3.25;73.12;98794.88;2174589;81;28349;-73
2021/01/25 09:17:01;;;;;;;17.35;11.38;;;;;;;3.32;72.99;98801.16;2174296;81;27737;-75
2021/01/25 09:20:06;;;;;;;13.13;9.60;;;;;;;3.36;72.81;98808.48;2157008;81;28945;-76
2021/01/25 09:23:08;;;;;;;28.53;17.07;;;;;;;3.34;72.53;98816.51;2152101;81;31143;-75
2021/01/25 09:26:10;;;;;;;13.98;8.88;;;;;;;3.36;72.70;98825.69;2217344;80;33121;-75
2021/01/25 09:29:13;;;;;;;22.07;10.98;;;;;;;3.39;72.49;98826.88;2180986;80;28859;-71
2021/01/25 09:32:15;;;;;;;21.27;12.15;;;;;;;3.39;72.35;98826.88;2139683;81;27703;-73
2021/01/25 09:35:18;;;;;;;18.85;11.18;;;;;;;3.40;72.40;98829.94;2209201;80;29588;-74
2021/01/25 09:38:20;;;;;;;18.75;10.93;;;;;;;3.39;72.25;98834.83;2140635;81;31214;-70
2021/01/25 09:41:23;;;;;;;22.50;12.15;;;;;;;3.40;72.35;98838.31;2217053;80;34049;-73
2021/01/25 09:44:26;;;;;;;20.43;11.28;;;;;;;3.42;72.46;98843.96;2176789;81;28927;-73
2021/01/25 09:47:30;;;;;;;20.55;11.68;;;;;;;3.43;72.31;98843.48;2217550;80;27642;-74
2021/01/25 09:50:32;;;;;;;20.20;11.85;;;;;;;3.44;72.47;98846.08;2151589;81;28878;-74
2021/01/25 09:53:34;;;;;;;20.02;11.78;;;;;;;3.45;72.38;98843.83;2178704;81;31212;-73
2021/01/25 09:56:37;;;;;;;15.58;9.60;;;;;;;3.48;72.49;98842.83;2139184;82;33102;-74
2021/01/25 09:59:41;;;;;;;11.25;7.67;;;;;;;3.48;72.20;98845.48;2194194;80;27944;-74
2021/01/25 10:02:43;;;;;;;13.43;8.85;;;;;;;3.44;71.97;98842.11;2187341;80;27753;-72
2021/01/25 10:05:46;;;;;;;12.03;8.20;;;;;;;3.42;72.03;98855.88;2217463;80;28823;-72
2021/01/25 10:08:48;;;;;;;14.68;8.80;;;;;;;3.42;71.99;98849.26;2193831;80;31145;-74
2021/01/25 10:11:52;;;;;;;11.93;8.45;;;;;;;3.42;72.08;98851.91;2175806;81;33054;-74
2021/01/25 10:18:10;;;;;;;12.73;7.93;;;;;;;3.56;71.72;98851.75;2282550;77;27806;-74
2021/01/25 10:21:13;;;;;;;11.68;7.70;;;;;;;3.47;71.22;98856.99;2249485;79;27680;-75
2021/01/25 10:24:15;;;;;;;15.58;10.30;;;;;;;3.39;71.07;98859.13;2212429;79;28876;-73
2021/01/25 10:27:18;;;;;;;18.40;11.50;;;;;;;3.36;71.33;98865.39;2207018;80;31255;-72
2021/01/25 10:30:20;;;;;;;13.98;8.95;;;;;;;3.33;71.36;98859.78;2207007;80;33104;-74
2021/01/25 10:33:23;;;;;;;13.68;10.00;;;;;;;3.31;71.28;98859.47;2246032;79;29511;-73
2021/01/25 10:36:25;;;;;;;14.15;9.35;;;;;;;3.30;71.08;98863.03;2251775;79;27711;-73
2021/01/25 10:39:28;;;;;;;13.93;9.15;;;;;;;3.23;70.91;98862.41;2251077;79;29721;-73
2021/01/25 10:42:30;;;;;;;13.62;9.90;;;;;;;3.17;71.08;98860.89;2250934;79;31123;-73
2021/01/25 10:45:32;;;;;;;16.67;10.50;;;;;;;3.15;71.12;98861.41;2211718;80;33121;-73
2021/01/25 10:48:35;;;;;;;18.52;12.37;;;;;;;3.15;71.30;98859.25;2211880;80;29820;-73
2021/01/25 10:51:37;;;;;;;27.22;17.23;;;;;;;3.15;71.29;98862.73;2214792;79;27680;-72
2021/01/25 10:54:39;;;;;;;45.38;21.00;;;;;;;3.15;71.21;98861.89;2231343;79;28827;-71
2021/01/25 10:57:42;;;;;;;37.42;16.45;;;;;;;3.13;71.35;98861.09;2167557;82;31199;-72
2021/01/25 11:00:45;;;;;;;26.45;13.90;;;;;;;3.15;71.29;98869.35;2167372;82;33106;-73
2021/01/25 11:03:47;;;;;;;16.52;8.35;;;;;;;3.16;71.15;98860.97;2152135;82;28865;-71
2021/01/25 11:06:50;;;;;;;14.00;8.43;;;;;;;3.18;70.94;98869.23;2164474;82;27690;-74
2021/01/25 11:09:52;;;;;;;18.02;10.25;;;;;;;3.13;70.67;98870.35;2166653;82;28888;-72
2021/01/25 11:12:54;;;;;;;17.37;10.15;;;;;;;3.09;70.73;98872.72;2165722;82;31166;-71
2021/01/25 11:15:57;;;;;;;15.13;8.48;;;;;;;3.07;70.81;98873.24;2169134;81;33132;-73
2021/01/25 11:19:00;;;;;;;13.48;9.08;;;;;;;3.06;70.58;98871.08;2150714;81;29869;-73
2021/01/25 11:22:03;;;;;;;14.63;9.90;;;;;;;3.02;70.60;98873.00;2149650;81;27777;-71
2021/01/25 11:25:06;;;;;;;27.40;14.07;;;;;;;3.01;70.71;98879.66;2181044;81;28935;-72
2021/01/25 11:28:09;;;;;;;16.20;9.85;;;;;;;3.02;70.79;98880.06;2167256;81;31128;-72
2021/01/25 11:31:11;;;;;;;16.02;7.92;;;;;;;3.01;70.77;98884.95;2146716;81;33106;-73
2021/01/25 11:34:14;;;;;;;18.60;10.43;;;;;;;3.01;70.66;98891.56;2179949;81;28796;-73
2021/01/25 11:37:15;;;;;;;21.20;11.38;;;;;;;2.95;70.46;98885.23;2179361;81;27711;-73
2021/01/25 11:43:33;;;;;;;25.83;14.33;;;;;;;2.92;70.72;98896.77;2296962;77;27857;-74
2021/01/25 11:46:37;;;;;;;22.52;13.58;;;;;;;2.93;71.01;98893.68;2262422;78;27594;-71
2021/01/25 11:49:39;;;;;;;14.90;8.25;;;;;;;3.02;71.19;98891.52;2262491;78;28756;-74
2021/01/25 11:52:42;;;;;;;17.32;11.25;;;;;;;3.09;70.96;98897.86;2269563;77;31251;-74
2021/01/25 11:55:45;;;;;;;15.98;8.98;;;;;;;3.09;71.17;98888.16;2217234;80;33137;-73
2021/01/25 11:58:47;;;;;;;15.93;10.70;;;;;;;3.13;71.27;98893.72;2185686;78;28542;-75
2021/01/25 12:01:51;;;;;;;12.53;9.00;;;;;;;3.18;71.27;98887.75;2188956;80;27740;-75
2021/01/25 12:04:54;;;;;;;12.45;8.00;;;;;;;3.23;71.04;98894.16;2178672;81;29261;-76
2021/01/25 12:07:58;;;;;;;10.80;7.60;;;;;;;3.27;71.00;98894.44;2195973;80;31089;-73
2021/01/25 12:11:01;;;;;;;11.25;7.50;;;;;;;3.32;70.63;98896.89;2203040;80;33236;-76
2021/01/25 12:14:03;;;;;;;12.40;8.30;;;;;;;3.32;70.63;98896.89;2149383;81;28853;-75
2021/01/25 12:17:07;;;;;;;13.62;8.98;;;;;;;3.34;70.53;98904.30;2139581;83;27810;-74
2021/01/25 12:20:15;;;;;;;15.53;9.33;;;;;;;3.34;70.73;98903.86;2178072;80;28833;-75
2021/01/25 12:23:16;;;;;;;15.90;10.13;;;;;;;3.34;70.71;98907.83;2172568;80;31157;-74
2021/01/25 12:26:19;;;;;;;18.23;12.68;;;;;;;3.33;70.80;98910.52;2197239;80;33114;-74
2021/01/25 12:29:21;;;;;;;23.60;15.80;;;;;;;3.28;70.64;98906.75;2233980;78;28861;-75
2021/01/25 12:32:26;;;;;;;10.75;7.70;;;;;;;3.23;70.66;98903.91;2192409;80;30014;-75
2021/01/25 12:35:29;;;;;;;17.45;10.25;;;;;;;3.17;70.72;98900.58;2187383;79;28813;-75
2021/01/25 12:38:31;;;;;;;25.25;14.05;;;;;;;3.09;70.70;98905.35;2166156;82;31210;-77
2021/01/25 12:41:34;;;;;;;23.22;13.10;;;;;;;3.06;70.79;98909.44;2178163;81;33180;-76
2021/01/25 12:44:37;;;;;;;19.60;11.97;;;;;;;3.02;70.72;98906.52;2202356;80;28859;-74
2021/01/25 12:47:41;;;;;;;15.28;10.58;;;;;;;2.99;70.85;98914.13;2192119;80;27702;-74
2021/01/25 12:50:44;;;;;;;16.97;10.18;;;;;;;2.97;70.88;98917.30;2174395;81;28836;-75
2021/01/25 12:53:47;;;;;;;21.48;11.65;;;;;;;2.96;70.89;98920.02;2173988;80;32146;-75
2021/01/25 12:56:49;;;;;;;16.45;10.40;;;;;;;2.94;70.78;98922.70;2180043;80;33047;-75
2021/01/25 12:59:52;;;;;;;16.42;9.70;;;;;;;2.94;70.85;98924.50;2174700;81;28870;-75
2021/01/25 13:02:54;;;;;;;21.30;10.95;;;;;;;2.95;70.85;98928.88;2193861;80;27739;-74
2021/01/25 13:05:56;;;;;;;15.32;10.03;;;;;;;3.00;71.11;98937.45;2199432;80;28763;-77
2021/01/25 13:08:58;;;;;;;20.43;12.15;;;;;;;3.03;71.06;98942.63;2215919;80;32406;-76
2021/01/25 13:12:00;;;;;;;23.55;14.28;;;;;;;3.09;71.14;98952.09;2216024;80;34070;-76
2021/01/25 13:15:10;;;;;;;26.37;16.32;;;;;;;3.08;71.25;98950.38;2175972;81;28870;-77
2021/01/25 13:18:12;;;;;;;27.10;19.27;;;;;;;3.06;71.36;98954.42;2216291;80;27684;-76
2021/01/25 13:21:14;;;;;;;29.67;19.98;;;;;;;3.02;71.45;98961.62;2175952;81;27713;-75
2021/01/25 13:24:17;;;;;;;33.85;21.17;;;;;;;3.01;71.65;98961.67;2213869;80;31167;-76
2021/01/25 13:27:19;;;;;;;32.80;21.05;;;;;;;2.97;71.60;98964.06;2212973;80;34043;-72
2021/01/25 13:30:23;;;;;;;29.02;20.60;;;;;;;2.95;71.65;98969.88;2177734;81;28863;-75
2021/01/25 13:33:25;;;;;;;28.65;18.95;;;;;;;2.91;71.66;98978.37;2170163;80;27712;-75
2021/01/25 13:36:30;;;;;;;37.67;21.30;;;;;;;2.88;71.69;98979.36;2180433;80;28882;-73
2021/01/25 13:39:33;;;;;;;31.82;19.17;;;;;;;2.84;71.63;98984.84;2216619;80;31199;-73
2021/01/25 13:42:37;;;;;;;36.00;19.98;;;;;;;2.81;71.62;98988.48;2198746;80;33230;-75
2021/01/25 13:45:40;;;;;;;31.82;16.65;;;;;;;2.81;71.66;98995.53;2176498;81;28844;-75
2021/01/25 13:48:44;;;;;;;23.67;12.63;;;;;;;2.81;71.33;98997.73;2164744;81;33472;-73
2021/01/25 13:51:46;;;;;;;13.98;9.35;;;;;;;2.81;70.97;98994.21;2177202;81;28808;-71
2021/01/25 13:55:03;;;;;;;15.75;9.08;;;;;;;2.81;70.38;99003.02;2177094;81;31137;-73
2021/01/25 13:58:23;;;;;;;13.43;9.58;;;;;;;2.84;70.52;99006.00;2173791;81;28086;-75
2021/01/25 14:01:37;;;;;;;15.53;9.20;;;;;;;2.87;70.18;99006.73;2168773;81;28967;-73
2021/01/25 14:04:53;;;;;;;11.88;8.98;;;;;;;2.89;70.27;99013.30;2108348;83;27689;-74
2021/01/25 14:07:57;;;;;;;11.65;8.48;;;;;;;2.84;70.13;99018.75;2101101;84;29709;-73
2021/01/25 14:11:01;;;;;;;10.65;7.72;;;;;;;2.81;70.03;99024.63;2139797;82;32109;-76
2021/01/25 14:14:04;;;;;;;14.83;8.98;;;;;;;2.71;70.05;99024.11;2121291;83;33136;-74
2021/01/25 14:17:06;;;;;;;12.43;8.18;;;;;;;2.63;70.18;99034.13;2109261;83;28858;-71
2021/01/25 14:20:12;;;;;;;12.28;8.88;;;;;;;2.54;70.12;99037.98;2107906;84;27741;-73
2021/01/25 14:23:15;;;;;;;14.73;8.78;;;;;;;2.50;70.40;99041.66;2111310;83;29989;-74